createdAt,value
2022-09-25T00:00:54.301Z,100886.00
2022-09-25T00:03:22.815Z,100891.34
2022-09-25T00:05:49.235Z,100886.41
2022-09-25T00:08:16.911Z,100883.94
2022-09-25T00:10:45.716Z,100881.47
2022-09-25T00:13:12.130Z,100879.25
2022-09-25T00:15:44.984Z,100878.41
2022-09-25T00:18:11.435Z,100876.13
2022-09-25T00:20:37.815Z,100878.19
2022-09-25T00:23:04.215Z,100873.16
2022-09-25T00:25:30.600Z,100877.88
2022-09-25T00:27:56.993Z,100877.63
2022-09-25T00:30:23.924Z,100865.56
2022-09-25T00:32:50.502Z,100862.47
2022-09-25T00:35:17.029Z,100862.97
2022-09-25T00:37:43.415Z,100852.56
2022-09-25T00:40:10.111Z,100864.66
2022-09-25T00:42:36.533Z,100857.94
2022-09-25T00:45:07.198Z,100864.19
2022-09-25T00:47:57.644Z,100857.44
2022-09-25T00:50:32.812Z,100857.72
2022-09-25T00:53:05.203Z,100848.41
2022-09-25T00:55:34.412Z,100856.28
2022-09-25T00:58:03.442Z,100856.59
2022-09-25T01:00:31.306Z,100860.53
2022-09-25T01:02:58.741Z,100859.94
2022-09-25T01:05:30.412Z,100862.13
2022-09-25T01:07:59.647Z,100857.94
2022-09-25T01:10:26.425Z,100856.59
2022-09-25T01:12:54.135Z,100859.41
2022-09-25T01:15:28.059Z,100856.06
2022-09-25T01:18:13.471Z,100844.75
2022-09-25T01:20:51.815Z,100843.28
2022-09-25T01:23:37.862Z,100833.50
2022-09-25T01:26:31.243Z,100838.50
2022-09-25T01:29:15.875Z,100839.34
2022-09-25T01:31:45.283Z,100834.34
2022-09-25T01:34:20.029Z,100834.75
2022-09-25T01:37:09.850Z,100830.63
2022-09-25T01:39:41.443Z,100839.69
2022-09-25T01:42:18.125Z,100837.66
2022-09-25T01:44:52.011Z,100830.69
2022-09-25T01:47:26.762Z,100831.53
2022-09-25T01:49:57.867Z,100832.97
2022-09-25T01:52:31.299Z,100837.28
2022-09-25T01:55:05.689Z,100831.53
2022-09-25T01:57:41.661Z,100825.72
2022-09-25T02:00:10.324Z,100819.88
2022-09-25T02:02:48.296Z,100841.00
2022-09-25T02:05:21.836Z,100824.66
2022-09-25T02:07:54.228Z,100831.59
2022-09-25T02:10:33.325Z,100833.31
2022-09-25T02:13:08.652Z,100834.00
2022-09-25T02:15:40.137Z,100830.38
2022-09-25T02:18:29.678Z,100828.72
2022-09-25T02:21:06.788Z,100830.69
2022-09-25T02:23:42.542Z,100829.31
2022-09-25T02:26:16.317Z,100830.38
2022-09-25T02:28:43.377Z,100821.41
2022-09-25T02:31:12.864Z,100820.41
2022-09-25T02:33:39.327Z,100832.50
2022-09-25T02:36:06.409Z,100828.78
2022-09-25T02:38:34.534Z,100830.22
2022-09-25T02:41:18.950Z,100832.75
2022-09-25T02:44:02.729Z,100832.50
2022-09-25T02:46:48.791Z,100834.69
2022-09-25T02:49:44.406Z,100830.75
2022-09-25T02:52:16.368Z,100827.28
2022-09-25T02:54:54.709Z,100831.44
2022-09-25T02:57:38.265Z,100829.16
2022-09-25T03:00:07.442Z,100829.94
2022-09-25T03:02:37.206Z,100825.75
2022-09-25T03:05:05.791Z,100823.44
2022-09-25T03:07:53.210Z,100822.75
2022-09-25T03:10:20.510Z,100829.06
2022-09-25T03:12:46.913Z,100829.25
2022-09-25T03:15:13.350Z,100822.75
2022-09-25T03:17:39.877Z,100822.34
2022-09-25T03:20:07.336Z,100820.13
2022-09-25T03:22:33.751Z,100821.72
2022-09-25T03:25:00.171Z,100819.97
2022-09-25T03:27:28.185Z,100811.63
2022-09-25T03:29:55.331Z,100818.13
2022-09-25T03:32:23.620Z,100814.19
2022-09-25T03:34:50.310Z,100813.13
2022-09-25T03:37:16.714Z,100815.94
2022-09-25T03:39:43.119Z,100809.09
2022-09-25T03:42:09.548Z,100808.03
2022-09-25T03:44:36.433Z,100804.06
2022-09-25T03:47:02.837Z,100802.16
2022-09-25T03:49:29.236Z,100806.41
2022-09-25T03:51:55.635Z,100798.00
2022-09-25T03:54:22.025Z,100794.34
2022-09-25T03:56:48.476Z,100798.38
2022-09-25T03:59:14.957Z,100793.72
2022-09-25T04:01:42.502Z,100788.09
2022-09-25T04:04:09.024Z,100799.59
2022-09-25T04:06:36.236Z,100793.72
2022-09-25T04:09:02.637Z,100796.00
2022-09-25T04:11:29.052Z,100801.63
2022-09-25T04:13:57.290Z,100798.00
2022-09-25T04:16:23.753Z,100796.00
2022-09-25T04:18:50.626Z,100802.47
2022-09-25T04:21:17.102Z,100809.53
2022-09-25T04:24:03.589Z,100809.88
2022-09-25T04:26:30.508Z,100813.56
2022-09-25T04:28:56.889Z,100814.38
2022-09-25T04:31:23.318Z,100809.97
2022-09-25T04:33:49.717Z,100818.09
2022-09-25T04:36:16.792Z,100812.78
2022-09-25T04:38:43.881Z,100810.28
2022-09-25T04:41:10.458Z,100818.34
2022-09-25T04:43:37.061Z,100812.31
2022-09-25T04:46:05.632Z,100815.00
2022-09-25T04:48:32.976Z,100809.53
2022-09-25T04:50:59.696Z,100811.28
2022-09-25T04:53:27.899Z,100808.53
2022-09-25T04:55:55.796Z,100812.63
2022-09-25T04:58:22.195Z,100822.47
2022-09-25T05:00:49.176Z,100817.13
2022-09-25T05:03:15.798Z,100817.41
2022-09-25T05:05:42.323Z,100811.53
2022-09-25T05:08:09.688Z,100814.88
2022-09-25T05:10:36.211Z,100814.81
2022-09-25T05:13:04.182Z,100817.91
2022-09-25T05:15:33.248Z,100813.84
2022-09-25T05:18:15.731Z,100818.94
2022-09-25T05:20:42.175Z,100820.22
2022-09-25T05:23:08.780Z,100821.09
2022-09-25T05:25:35.184Z,100818.22
2022-09-25T05:28:02.050Z,100826.16
2022-09-25T05:30:31.601Z,100824.44
2022-09-25T05:33:00.874Z,100823.91
2022-09-25T05:35:30.812Z,100826.94
2022-09-25T05:37:57.602Z,100839.06
2022-09-25T05:40:24.375Z,100831.97
2022-09-25T05:42:51.943Z,100837.84
2022-09-25T05:45:20.034Z,100831.03
2022-09-25T05:47:47.017Z,100826.50
2022-09-25T05:50:15.421Z,100830.66
2022-09-25T05:52:41.806Z,100820.78
2022-09-25T05:55:09.703Z,100819.91
2022-09-25T05:57:37.199Z,100812.25
2022-09-25T06:00:09.375Z,100811.72
2022-09-25T06:02:39.042Z,100809.84
2022-09-25T06:05:05.501Z,100817.66
2022-09-25T06:07:31.893Z,100821.06
2022-09-25T06:09:58.315Z,100817.16
2022-09-25T06:12:24.770Z,100826.19
2022-09-25T06:14:52.468Z,100818.88
2022-09-25T06:17:19.104Z,100814.94
2022-09-25T06:19:45.507Z,100809.47
2022-09-25T06:22:12.003Z,100816.16
2022-09-25T06:24:38.402Z,100825.41
2022-09-25T06:27:06.535Z,100818.91
2022-09-25T06:29:32.945Z,100815.53
2022-09-25T06:31:59.352Z,100825.88
2022-09-25T06:34:28.275Z,100819.03
2022-09-25T06:36:54.700Z,100823.16
2022-09-25T06:39:21.231Z,100822.25
2022-09-25T06:41:47.648Z,100820.63
2022-09-25T06:44:21.923Z,100822.69
2022-09-25T06:46:54.368Z,100825.06
2022-09-25T06:49:21.853Z,100817.75
2022-09-25T06:51:48.378Z,100814.03
2022-09-25T06:54:14.805Z,100818.75
2022-09-25T06:56:41.233Z,100819.19
2022-09-25T06:59:09.132Z,100823.16
2022-09-25T07:01:35.845Z,100816.00
2022-09-25T07:04:04.086Z,100819.72
2022-09-25T07:06:31.864Z,100821.72
2022-09-25T07:08:58.373Z,100824.81
2022-09-25T07:11:28.022Z,100821.94
2022-09-25T07:13:55.167Z,100811.53
2022-09-25T07:16:24.757Z,100810.06
2022-09-25T07:18:54.666Z,100821.56
2022-09-25T07:21:24.436Z,100822.00
2022-09-25T07:23:52.133Z,100824.03
2022-09-25T07:26:22.214Z,100821.06
2022-09-25T07:28:54.976Z,100824.19
2022-09-25T07:31:30.112Z,100818.25
2022-09-25T07:33:57.760Z,100818.19
2022-09-25T07:36:24.532Z,100811.59
2022-09-25T07:38:52.282Z,100820.78
2022-09-25T07:41:20.883Z,100825.50
2022-09-25T07:43:47.292Z,100816.53
2022-09-25T07:46:13.763Z,100821.50
2022-09-25T07:48:40.419Z,100817.19
2022-09-25T07:51:09.974Z,100821.50
2022-09-25T07:53:36.667Z,100810.91
2022-09-25T07:56:06.864Z,100814.88
2022-09-25T07:58:35.291Z,100813.50
2022-09-25T08:01:05.306Z,100813.00
2022-09-25T08:03:32.245Z,100813.69
2022-09-25T08:06:00.587Z,100808.41
2022-09-25T08:08:27.809Z,100806.00
2022-09-25T08:10:59.768Z,100802.91
2022-09-25T08:13:26.163Z,100800.72
2022-09-25T08:15:52.649Z,100800.00
2022-09-25T08:18:19.123Z,100806.03
2022-09-25T08:20:45.506Z,100802.47
2022-09-25T08:23:11.905Z,100802.69
2022-09-25T08:25:38.619Z,100802.47
2022-09-25T08:28:05.024Z,100804.25
2022-09-25T08:30:31.648Z,100797.34
2022-09-25T08:32:58.163Z,100799.22
2022-09-25T08:35:24.590Z,100796.78
2022-09-25T08:37:50.971Z,100791.34
2022-09-25T08:40:26.889Z,100798.47
2022-09-25T08:42:55.160Z,100797.50
2022-09-25T08:45:46.116Z,100802.63
2022-09-25T08:49:03.581Z,100804.84
2022-09-25T08:51:32.399Z,100798.69
2022-09-25T08:53:59.963Z,100801.16
2022-09-25T08:56:32.569Z,100802.13
2022-09-25T08:59:30.724Z,100799.50
2022-09-25T09:02:00.901Z,100801.78
2022-09-25T09:04:35.838Z,100800.94
2022-09-25T09:07:32.249Z,100792.53
2022-09-25T09:10:21.319Z,100786.00
2022-09-25T09:12:56.469Z,100785.69
2022-09-25T09:15:30.380Z,100793.25
2022-09-25T09:17:59.772Z,100787.47
2022-09-25T09:20:41.438Z,100784.91
2022-09-25T09:23:17.075Z,100779.19
2022-09-25T09:25:58.411Z,100780.47
2022-09-25T09:28:44.641Z,100778.66
2022-09-25T09:31:49.974Z,100771.44
2022-09-25T09:35:03.978Z,100780.16
2022-09-25T09:37:52.578Z,100779.69
2022-09-25T09:40:53.685Z,100773.09
2022-09-25T09:43:31.565Z,100774.78
2022-09-25T09:46:08.239Z,100767.00
2022-09-25T09:48:48.618Z,100768.84
2022-09-25T09:51:21.382Z,100766.38
2022-09-25T09:53:53.055Z,100764.91
2022-09-25T09:56:31.870Z,100765.44
2022-09-25T09:59:05.062Z,100767.75
2022-09-25T10:01:41.428Z,100762.25
2022-09-25T10:04:17.130Z,100763.75
2022-09-25T10:06:59.246Z,100763.59
2022-09-25T10:09:28.112Z,100759.63
2022-09-25T10:12:05.323Z,100755.63
2022-09-25T10:14:40.905Z,100753.66
2022-09-25T10:17:11.454Z,100756.47
2022-09-25T10:19:47.569Z,100755.78
2022-09-25T10:22:17.344Z,100751.44
2022-09-25T10:24:58.555Z,100751.25
2022-09-25T10:27:36.827Z,100749.72
2022-09-25T10:30:08.910Z,100738.56
2022-09-25T10:32:57.248Z,100742.91
2022-09-25T10:35:42.017Z,100740.53
2022-09-25T10:38:43.951Z,100746.63
2022-09-25T10:41:14.688Z,100743.47
2022-09-25T10:44:00.006Z,100746.16
2022-09-25T10:46:53.111Z,100741.81
2022-09-25T10:49:46.292Z,100742.59
2022-09-25T10:52:15.507Z,100751.88
2022-09-25T10:54:45.543Z,100742.69
2022-09-25T10:57:36.471Z,100744.56
2022-09-25T11:00:06.035Z,100745.47
2022-09-25T11:02:43.048Z,100742.31
2022-09-25T11:05:19.880Z,100742.03
2022-09-25T11:07:54.937Z,100741.84
2022-09-25T11:10:23.782Z,100741.50
2022-09-25T11:12:52.018Z,100734.84
2022-09-25T11:15:21.506Z,100734.44
2022-09-25T11:17:51.460Z,100736.34
2022-09-25T11:20:31.969Z,100729.78
2022-09-25T11:23:22.171Z,100734.53
2022-09-25T11:25:57.724Z,100724.28
2022-09-25T11:28:37.191Z,100722.47
2022-09-25T11:31:32.867Z,100716.94
2022-09-25T11:34:05.102Z,100715.94
2022-09-25T11:37:01.090Z,100707.03
2022-09-25T11:39:58.128Z,100708.56
2022-09-25T11:42:35.503Z,100706.00
2022-09-25T11:45:10.630Z,100702.75
2022-09-25T11:47:44.201Z,100698.50
2022-09-25T11:50:15.860Z,100700.97
2022-09-25T11:52:50.796Z,100687.56
2022-09-25T11:55:46.618Z,100692.22
2022-09-25T11:58:14.474Z,100689.00
2022-09-25T12:00:52.634Z,100689.81
2022-09-25T12:03:41.025Z,100691.38
2022-09-25T12:06:26.879Z,100685.41
2022-09-25T12:09:22.741Z,100682.69
2022-09-25T12:12:03.277Z,100681.88
2022-09-25T12:14:38.494Z,100681.41
2022-09-25T12:17:20.029Z,100674.81
2022-09-25T12:20:20.321Z,100684.06
2022-09-25T12:23:02.876Z,100677.34
2022-09-25T12:25:47.948Z,100675.59
2022-09-25T12:28:52.554Z,100674.34
2022-09-25T12:31:53.504Z,100672.34
2022-09-25T12:34:33.044Z,100673.75
2022-09-25T12:37:23.113Z,100672.13
2022-09-25T12:40:04.023Z,100669.34
2022-09-25T12:42:42.053Z,100666.25
2022-09-25T12:45:18.446Z,100658.84
2022-09-25T12:47:56.056Z,100665.06
2022-09-25T12:50:31.195Z,100657.69
2022-09-25T12:53:31.684Z,100654.00
2022-09-25T12:56:24.217Z,100651.72
2022-09-25T12:59:20.068Z,100648.78
2022-09-25T13:02:03.817Z,100654.22
2022-09-25T13:04:49.248Z,100641.16
2022-09-25T13:07:21.321Z,100643.88
2022-09-25T13:09:48.986Z,100645.09
2022-09-25T13:12:35.383Z,100647.81
2022-09-25T13:15:16.026Z,100642.31
2022-09-25T13:17:42.641Z,100649.03
2022-09-25T13:20:27.096Z,100646.44
2022-09-25T13:23:09.786Z,100646.69
2022-09-25T13:25:53.588Z,100647.88
2022-09-25T13:28:23.420Z,100643.88
2022-09-25T13:31:12.907Z,100641.97
2022-09-25T13:33:52.648Z,100648.88
2022-09-25T13:36:23.531Z,100643.16
2022-09-25T13:39:16.087Z,100640.19
2022-09-25T13:41:55.344Z,100635.25
2022-09-25T13:45:07.475Z,100642.19
2022-09-25T13:47:43.730Z,100632.34
2022-09-25T13:50:22.468Z,100623.72
2022-09-25T13:52:48.792Z,100632.59
2022-09-25T13:55:21.266Z,100628.34
2022-09-25T13:57:57.294Z,100618.41
2022-09-25T14:00:32.824Z,100616.84
2022-09-25T14:03:03.067Z,100614.69
2022-09-25T14:05:36.153Z,100612.34
2022-09-25T14:08:09.145Z,100613.41
2022-09-25T14:10:36.015Z,100623.66
2022-09-25T14:13:06.902Z,100610.31
2022-09-25T14:15:49.492Z,100616.34
2022-09-25T14:18:37.536Z,100617.53
2022-09-25T14:21:07.635Z,100616.00
2022-09-25T14:23:34.060Z,100610.31
2022-09-25T14:26:03.053Z,100606.41
2022-09-25T14:28:31.673Z,100605.00
2022-09-25T14:31:34.730Z,100593.16
2022-09-25T14:34:37.635Z,100591.28
2022-09-25T14:37:16.112Z,100593.88
2022-09-25T14:40:11.565Z,100594.34
2022-09-25T14:43:02.891Z,100585.09
2022-09-25T14:46:00.274Z,100585.22
2022-09-25T14:48:36.748Z,100587.94
2022-09-25T14:51:12.162Z,100581.06
2022-09-25T14:53:46.462Z,100578.72
2022-09-25T14:56:14.685Z,100578.13
2022-09-25T14:58:46.235Z,100578.38
2022-09-25T15:01:27.759Z,100573.84
2022-09-25T15:03:58.669Z,100578.88
2022-09-25T15:06:29.231Z,100577.19
2022-09-25T15:08:56.367Z,100578.78
2022-09-25T15:11:27.134Z,100573.53
2022-09-25T15:13:55.032Z,100574.97
2022-09-25T15:16:45.592Z,100577.03
2022-09-25T15:19:20.558Z,100579.91
2022-09-25T15:21:47.541Z,100578.47
2022-09-25T15:24:27.759Z,100573.00
2022-09-25T15:27:03.803Z,100576.16
2022-09-25T15:29:38.112Z,100570.91
2022-09-25T15:32:05.772Z,100572.72
2022-09-25T15:34:32.858Z,100570.44
2022-09-25T15:37:26.241Z,100565.19
2022-09-25T15:39:53.374Z,100565.28
2022-09-25T15:42:20.291Z,100564.84
2022-09-25T15:44:47.831Z,100568.19
2022-09-25T15:47:35.744Z,100565.69
2022-09-25T15:50:06.115Z,100557.25
2022-09-25T15:52:33.970Z,100553.59
2022-09-25T15:55:03.201Z,100559.41
2022-09-25T15:57:32.161Z,100563.88
2022-09-25T16:00:23.090Z,100555.88
2022-09-25T16:03:17.413Z,100565.56
2022-09-25T16:05:47.371Z,100558.91
2022-09-25T16:08:30.894Z,100554.91
2022-09-25T16:11:17.221Z,100550.53
2022-09-25T16:13:48.449Z,100545.91
2022-09-25T16:16:23.409Z,100547.66
2022-09-25T16:18:51.174Z,100544.06
2022-09-25T16:21:28.828Z,100546.91
2022-09-25T16:24:05.769Z,100541.94
2022-09-25T16:26:42.804Z,100544.13
2022-09-25T16:29:12.215Z,100553.25
2022-09-25T16:31:43.915Z,100552.19
2022-09-25T16:34:30.731Z,100556.72
2022-09-25T16:37:00.727Z,100556.34
2022-09-25T16:39:37.867Z,100554.03
2022-09-25T16:42:29.449Z,100560.03
2022-09-25T16:45:14.716Z,100563.88
2022-09-25T16:47:46.827Z,100572.78
2022-09-25T16:50:16.181Z,100569.63
2022-09-25T16:52:44.019Z,100561.00
2022-09-25T16:55:29.318Z,100562.50
2022-09-25T16:57:56.929Z,100561.22
2022-09-25T17:00:25.789Z,100556.88
2022-09-25T17:02:53.976Z,100560.56
2022-09-25T17:05:26.498Z,100553.91
2022-09-25T17:07:55.968Z,100555.91
2022-09-25T17:10:25.736Z,100552.56
2022-09-25T17:12:54.250Z,100543.94
2022-09-25T17:15:24.124Z,100544.78
2022-09-25T17:17:54.642Z,100537.63
2022-09-25T17:20:23.380Z,100539.97
2022-09-25T17:22:54.183Z,100536.66
2022-09-25T17:25:48.433Z,100540.47
2022-09-25T17:28:15.553Z,100543.31
2022-09-25T17:30:42.764Z,100547.19
2022-09-25T17:33:21.382Z,100549.66
2022-09-25T17:36:04.856Z,100546.53
2022-09-25T17:38:32.534Z,100551.53
2022-09-25T17:41:05.442Z,100555.34
2022-09-25T17:43:32.786Z,100551.03
2022-09-25T17:46:00.987Z,100562.50
2022-09-25T17:48:30.654Z,100552.34
2022-09-25T17:50:59.895Z,100556.00
2022-09-25T17:53:28.898Z,100558.81
2022-09-25T17:56:00.016Z,100560.13
2022-09-25T17:58:28.772Z,100556.94
2022-09-25T18:00:57.669Z,100560.59
2022-09-25T18:03:24.092Z,100565.91
2022-09-25T18:05:50.513Z,100563.22
2022-09-25T18:08:17.913Z,100565.25
2022-09-25T18:10:45.048Z,100564.19
2022-09-25T18:13:15.660Z,100564.22
2022-09-25T18:15:48.290Z,100557.09
2022-09-25T18:18:15.271Z,100550.09
2022-09-25T18:21:00.163Z,100553.25
2022-09-25T18:23:26.818Z,100550.72
2022-09-25T18:25:54.709Z,100556.16
2022-09-25T18:28:21.210Z,100562.31
2022-09-25T18:30:47.654Z,100555.47
2022-09-25T18:33:14.075Z,100550.34
2022-09-25T18:35:42.736Z,100552.19
2022-09-25T18:38:09.160Z,100548.88
2022-09-25T18:40:35.603Z,100543.88
2022-09-25T18:43:02.064Z,100546.84
2022-09-25T18:45:28.440Z,100550.63
2022-09-25T18:47:54.814Z,100556.47
2022-09-25T18:50:21.280Z,100558.41
2022-09-25T18:52:47.849Z,100558.59
2022-09-25T18:55:14.240Z,100561.84
2022-09-25T18:57:40.953Z,100560.38
2022-09-25T19:00:07.876Z,100553.56
2022-09-25T19:02:38.787Z,100561.34
2022-09-25T19:05:06.602Z,100563.03
2022-09-25T19:07:33.086Z,100555.91
2022-09-25T19:10:01.746Z,100556.00
2022-09-25T19:12:28.173Z,100552.34
2022-09-25T19:14:54.548Z,100548.88
2022-09-25T19:17:20.991Z,100541.09
2022-09-25T19:19:47.372Z,100548.38
2022-09-25T19:22:20.184Z,100551.50
2022-09-25T19:24:47.975Z,100550.03
2022-09-25T19:27:16.143Z,100550.66
2022-09-25T19:29:44.782Z,100550.91
2022-09-25T19:32:13.356Z,100546.34
2022-09-25T19:34:40.308Z,100542.78
2022-09-25T19:37:07.344Z,100537.41
2022-09-25T19:39:52.650Z,100539.03
2022-09-25T19:42:19.280Z,100539.19
2022-09-25T19:44:46.926Z,100538.66
2022-09-25T19:47:13.380Z,100544.13
2022-09-25T19:49:39.803Z,100538.78
2022-09-25T19:52:06.249Z,100540.78
2022-09-25T19:54:32.776Z,100529.94
2022-09-25T19:56:59.534Z,100534.44
2022-09-25T19:59:26.119Z,100535.28
2022-09-25T20:01:53.540Z,100527.22
2022-09-25T20:04:20.239Z,100526.47
2022-09-25T20:06:47.282Z,100527.91
2022-09-25T20:09:14.569Z,100520.31
2022-09-25T20:11:41.069Z,100522.97
2022-09-25T20:14:07.786Z,100533.63
2022-09-25T20:16:34.448Z,100526.31
2022-09-25T20:19:03.493Z,100534.44
2022-09-25T20:21:32.816Z,100529.31
2022-09-25T20:24:01.447Z,100535.78
2022-09-25T20:26:28.896Z,100526.75
2022-09-25T20:28:59.995Z,100525.47
2022-09-25T20:31:28.616Z,100513.19
2022-09-25T20:33:55.622Z,100518.09
2022-09-25T20:36:22.677Z,100522.03
2022-09-25T20:38:50.759Z,100526.00
2022-09-25T20:41:18.284Z,100516.22
2022-09-25T20:43:44.956Z,100525.66
2022-09-25T20:46:13.547Z,100519.44
2022-09-25T20:48:47.514Z,100521.91
2022-09-25T20:51:16.290Z,100513.75
2022-09-25T20:53:43.271Z,100515.28
2022-09-25T20:56:14.800Z,100513.69
2022-09-25T20:58:43.145Z,100514.22
2022-09-25T21:01:12.647Z,100511.56
2022-09-25T21:03:41.518Z,100505.72
2022-09-25T21:06:12.390Z,100508.41
2022-09-25T21:08:39.032Z,100510.72
2022-09-25T21:11:06.192Z,100505.28
2022-09-25T21:13:34.217Z,100502.13
2022-09-25T21:16:04.426Z,100504.06
2022-09-25T21:18:35.036Z,100497.41
2022-09-25T21:21:10.811Z,100505.94
2022-09-25T21:23:37.464Z,100502.19
2022-09-25T21:26:08.975Z,100497.91
2022-09-25T21:28:36.302Z,100494.25
2022-09-25T21:31:14.901Z,100494.91
2022-09-25T21:33:41.805Z,100491.34
2022-09-25T21:36:13.251Z,100494.91
2022-09-25T21:38:39.815Z,100490.84
2022-09-25T21:41:08.672Z,100487.50
2022-09-25T21:43:35.899Z,100486.28
2022-09-25T21:46:08.592Z,100483.47
2022-09-25T21:48:36.484Z,100476.59
2022-09-25T21:51:04.890Z,100480.94
2022-09-25T21:53:31.718Z,100480.56
2022-09-25T21:56:20.923Z,100469.94
2022-09-25T21:58:47.331Z,100477.22
2022-09-25T22:01:19.427Z,100477.41
2022-09-25T22:03:50.465Z,100484.13
2022-09-25T22:06:18.340Z,100481.50
2022-09-25T22:08:47.219Z,100476.81
2022-09-25T22:11:14.118Z,100473.88
2022-09-25T22:13:43.252Z,100483.69
2022-09-25T22:16:15.560Z,100476.16
2022-09-25T22:18:48.014Z,100483.16
2022-09-25T22:21:18.181Z,100481.00
2022-09-25T22:23:44.971Z,100475.97
2022-09-25T22:26:13.313Z,100480.59
2022-09-25T22:28:40.182Z,100475.06
2022-09-25T22:31:13.917Z,100472.66
2022-09-25T22:33:40.357Z,100469.75
2022-09-25T22:36:09.162Z,100468.91
2022-09-25T22:38:36.208Z,100475.59
2022-09-25T22:41:08.435Z,100467.03
2022-09-25T22:43:35.397Z,100461.03
2022-09-25T22:46:01.908Z,100463.19
2022-09-25T22:48:28.368Z,100469.22
2022-09-25T22:51:08.632Z,100464.13
2022-09-25T22:53:35.710Z,100455.69
2022-09-25T22:56:11.093Z,100463.28
2022-09-25T22:58:38.071Z,100450.41
2022-09-25T23:01:09.232Z,100452.25
2022-09-25T23:03:35.745Z,100457.25
2022-09-25T23:06:03.175Z,100449.88
2022-09-25T23:08:30.272Z,100459.25
2022-09-25T23:11:07.166Z,100453.63
2022-09-25T23:13:35.220Z,100453.94
2022-09-25T23:16:08.114Z,100455.88
2022-09-25T23:18:36.415Z,100453.72
2022-09-25T23:21:03.967Z,100452.69
2022-09-25T23:23:30.807Z,100441.75
2022-09-25T23:26:01.963Z,100448.72
2022-09-25T23:28:28.360Z,100443.34
2022-09-25T23:30:54.831Z,100446.44
2022-09-25T23:33:21.290Z,100448.00
2022-09-25T23:35:47.708Z,100444.38
2022-09-25T23:38:14.111Z,100451.63
2022-09-25T23:40:40.597Z,100446.63
2022-09-25T23:43:07.053Z,100443.63
2022-09-25T23:45:33.564Z,100443.34
2022-09-25T23:48:00.062Z,100444.78
2022-09-25T23:50:26.451Z,100433.75
2022-09-25T23:52:52.831Z,100439.38
2022-09-25T23:55:19.233Z,100428.53
2022-09-25T23:57:45.632Z,100430.22
